Time;durP1;ratioP1;P1;durP2;ratioP2;P2;SDS_P1;SDS_P2;PMS_P1;PMS_P2;Temp;Humidity;BMP_temperature;BMP_pressure;BME280_temperature;BME280_humidity;BME280_pressure;Samples;Min_cycle;Max_cycle;Signal;HPM_P1;HPM_P2
2021/07/06 00:02:15;;;;;;;9.80;7.10;;;;;;;15.25;98.97;100622.25;4986824;28;20462;-82
2021/07/06 00:04:40;;;;;;;8.88;6.18;;;;;;;15.22;99.10;100627.88;4994071;28;20034;-82
2021/07/06 00:07:05;;;;;;;10.70;6.95;;;;;;;15.27;99.08;100620.28;5012766;28;20048;-82
2021/07/06 00:09:31;;;;;;;10.13;6.68;;;;;;;15.24;99.00;100614.25;5012225;28;20465;-82
2021/07/06 00:11:56;;;;;;;20.38;7.72;;;;;;;15.26;98.75;100609.56;4997825;28;20486;-82
2021/07/06 00:14:21;;;;;;;9.73;6.97;;;;;;;15.27;99.37;100604.03;5000024;28;20018;-82
2021/07/06 00:16:47;;;;;;;13.65;6.40;;;;;;;15.33;98.78;100613.50;4996385;28;20113;-81
2021/07/06 00:19:12;;;;;;;9.50;6.63;;;;;;;15.36;98.97;100607.81;4980234;28;20133;-82
2021/07/06 00:21:37;;;;;;;9.57;5.70;;;;;;;15.29;99.12;100599.38;4996065;28;20121;-82
2021/07/06 00:24:03;;;;;;;9.35;6.45;;;;;;;15.38;99.66;100605.88;4980054;28;20485;-82
2021/07/06 00:26:28;;;;;;;11.07;6.68;;;;;;;15.38;98.90;100600.44;4994356;28;20021;-83
2021/07/06 00:28:53;;;;;;;13.43;7.15;;;;;;;15.42;98.73;100590.25;4999568;28;20057;-82
2021/07/06 00:31:19;;;;;;;10.57;6.85;;;;;;;15.48;98.30;100584.31;4998680;28;20026;-82
2021/07/06 00:33:45;;;;;;;9.73;5.78;;;;;;;15.57;97.62;100610.63;4999420;28;20033;-82
2021/07/06 00:36:11;;;;;;;10.27;6.07;;;;;;;15.69;96.87;100603.38;4999538;28;20122;-82
2021/07/06 00:38:36;;;;;;;9.60;5.72;;;;;;;15.75;96.07;100603.75;4999651;28;20129;-82
2021/07/06 00:41:02;;;;;;;9.30;5.82;;;;;;;15.76;96.17;100602.78;4999347;28;20093;-82
2021/07/06 00:43:28;;;;;;;8.55;5.60;;;;;;;15.78;96.30;100597.22;4999089;28;20202;-82
2021/07/06 00:45:57;;;;;;;9.98;5.22;;;;;;;15.81;95.51;100596.97;4996081;28;20488;-82
2021/07/06 00:48:24;;;;;;;7.47;4.88;;;;;;;15.80;95.58;100588.97;4995893;28;20027;-82
2021/07/06 00:50:49;;;;;;;13.88;5.80;;;;;;;15.85;95.07;100586.72;4995852;28;20026;-82
2021/07/06 00:53:14;;;;;;;8.25;5.15;;;;;;;15.92;95.63;100596.94;5012044;28;20037;-82
2021/07/06 00:55:42;;;;;;;9.18;4.82;;;;;;;15.90;94.50;100595.38;4999092;28;20037;-82
2021/07/06 00:58:10;;;;;;;8.77;4.40;;;;;;;15.93;95.27;100585.13;4983497;28;20125;-82
2021/07/06 01:00:36;;;;;;;9.32;5.22;;;;;;;15.87;95.06;100582.91;4979177;28;20030;-82
2021/07/06 01:03:01;;;;;;;6.20;4.20;;;;;;;15.90;94.14;100582.66;4980935;28;20181;-82
2021/07/06 01:05:28;;;;;;;9.25;4.57;;;;;;;15.98;95.15;100579.31;4998566;28;20030;-82
2021/07/06 01:07:55;;;;;;;8.65;5.63;;;;;;;15.94;93.66;100558.88;4979509;28;20033;-81
2021/07/06 01:10:20;;;;;;;8.70;5.03;;;;;;;15.98;94.07;100568.47;4985998;28;20034;-82
2021/07/06 01:12:46;;;;;;;11.30;4.65;;;;;;;16.16;92.77;100579.63;4998687;28;20361;-82
2021/07/06 01:15:14;;;;;;;11.40;5.35;;;;;;;16.11;93.21;100576.44;4996066;28;20019;-82
2021/07/06 01:17:40;;;;;;;6.18;4.38;;;;;;;16.05;93.35;100563.41;4979196;28;20125;-82
2021/07/06 01:20:11;;;;;;;10.90;4.30;;;;;;;16.05;93.46;100566.97;4984125;28;20046;-82
2021/07/06 01:22:37;;;;;;;9.70;5.18;;;;;;;16.16;92.28;100569.63;4997719;28;20026;-82
2021/07/06 01:25:06;;;;;;;11.32;4.70;;;;;;;16.11;92.99;100562.91;5030936;28;20431;-82
2021/07/06 01:27:31;;;;;;;10.18;4.22;;;;;;;16.14;92.29;100552.63;4995194;28;20022;-82
2021/07/06 01:29:59;;;;;;;5.80;3.78;;;;;;;16.18;92.16;100567.66;4998132;28;20041;-82
2021/07/06 01:32:25;;;;;;;7.03;4.40;;;;;;;16.16;92.36;100553.38;4980443;28;20108;-81
2021/07/06 01:34:50;;;;;;;11.43;4.30;;;;;;;16.22;91.44;100554.69;5014497;28;20072;-82
2021/07/06 01:37:17;;;;;;;8.93;3.85;;;;;;;16.18;91.51;100558.66;5014564;28;20026;-83
2021/07/06 01:39:43;;;;;;;6.43;3.97;;;;;;;16.22;91.44;100543.84;5013888;28;20029;-82
2021/07/06 01:42:08;;;;;;;8.83;4.20;;;;;;;16.18;91.86;100539.69;4978200;28;20033;-82
2021/07/06 01:44:34;;;;;;;7.22;3.47;;;;;;;16.11;92.07;100535.78;4999601;28;20021;-82
2021/07/06 01:46:59;;;;;;;6.85;3.60;;;;;;;16.14;91.91;100530.94;5017603;28;20049;-83
2021/07/06 01:49:24;;;;;;;6.93;3.15;;;;;;;16.13;91.30;100531.97;5033974;28;20037;-84
2021/07/06 01:51:50;;;;;;;4.88;2.90;;;;;;;16.22;91.00;100540.28;5007918;28;20030;-81
2021/07/06 01:54:16;;;;;;;4.60;3.15;;;;;;;16.29;90.27;100527.91;4998209;28;20064;-82
2021/07/06 01:56:47;;;;;;;8.07;3.58;;;;;;;16.30;90.19;100540.50;5010692;28;20030;-82
2021/07/06 01:59:14;;;;;;;9.50;3.42;;;;;;;16.27;90.83;100530.78;4978567;28;20040;-83
2021/07/06 02:01:39;;;;;;;8.00;3.45;;;;;;;16.25;90.03;100530.03;4978510;28;20461;-82
2021/07/06 02:04:06;;;;;;;5.68;3.33;;;;;;;16.22;91.50;100534.84;4978599;28;20113;-83
2021/07/06 02:06:32;;;;;;;7.55;3.38;;;;;;;16.17;91.24;100516.28;4978145;28;20041;-82
2021/07/06 02:08:58;;;;;;;6.55;3.53;;;;;;;16.22;90.92;100529.44;4979263;28;20026;-82
2021/07/06 02:11:23;;;;;;;6.60;3.38;;;;;;;16.14;91.72;100522.81;4997580;28;20034;-82
2021/07/06 02:13:49;;;;;;;6.53;3.97;;;;;;;16.08;92.27;100511.63;4977889;28;20160;-83
2021/07/06 02:16:14;;;;;;;7.53;3.78;;;;;;;16.07;91.87;100509.94;5008502;28;20489;-83
2021/07/06 02:18:40;;;;;;;5.82;4.15;;;;;;;16.05;91.81;100520.91;4978220;28;20100;-82
2021/07/06 02:21:05;;;;;;;8.27;3.50;;;;;;;16.08;92.15;100511.63;4977919;28;20058;-82
2021/07/06 02:23:31;;;;;;;6.80;3.40;;;;;;;16.07;91.93;100504.50;4978197;28;20085;-82
2021/07/06 02:26:03;;;;;;;6.88;4.05;;;;;;;16.09;92.08;100518.78;4977821;28;20029;-83
2021/07/06 02:28:29;;;;;;;8.52;3.90;;;;;;;16.08;91.37;100512.53;4994283;28;20038;-83
2021/07/06 02:30:55;;;;;;;8.57;4.22;;;;;;;16.11;91.65;100522.25;4993892;28;20077;-82
2021/07/06 02:33:21;;;;;;;13.48;4.10;;;;;;;16.06;91.72;100509.09;4977588;28;20022;-82
2021/07/06 02:35:47;;;;;;;7.68;4.13;;;;;;;16.03;92.52;100505.75;4993293;28;20138;-83
2021/07/06 02:38:14;;;;;;;5.20;3.72;;;;;;;16.03;92.53;100506.63;4994019;28;20362;-82
2021/07/06 02:40:40;;;;;;;11.43;3.95;;;;;;;16.03;92.29;100503.91;4993935;28;20026;-82
2021/07/06 02:43:05;;;;;;;6.18;3.78;;;;;;;16.03;92.81;100503.91;4997255;28;20025;-83
2021/07/06 02:45:31;;;;;;;7.28;3.78;;;;;;;15.99;92.63;100497.03;5013692;28;20389;-82
2021/07/06 02:47:57;;;;;;;6.60;3.58;;;;;;;15.96;93.10;100497.28;4997408;28;20137;-83
2021/07/06 02:50:23;;;;;;;6.78;4.15;;;;;;;15.99;93.33;100486.22;4981039;28;20030;-82
2021/07/06 02:52:49;;;;;;;7.37;4.77;;;;;;;16.03;92.76;100509.31;4977479;28;20113;-82
2021/07/06 02:55:15;;;;;;;9.30;3.85;;;;;;;16.07;92.53;100510.78;4977649;28;20327;-82
2021/07/06 02:57:41;;;;;;;7.85;3.75;;;;;;;16.07;92.08;100497.25;4993764;28;20026;-82
2021/07/06 03:00:14;;;;;;;8.65;4.43;;;;;;;16.01;92.65;100500.47;4991084;28;20032;-82
2021/07/06 03:02:44;;;;;;;6.13;3.63;;;;;;;15.96;92.33;100481.88;4997204;28;20026;-82
2021/07/06 03:05:12;;;;;;;7.20;3.40;;;;;;;16.04;92.35;100491.25;4994369;28;20053;-82
2021/07/06 03:07:38;;;;;;;7.22;4.03;;;;;;;15.99;91.86;100476.22;4984878;28;20030;-82
2021/07/06 03:10:11;;;;;;;7.32;3.67;;;;;;;16.06;92.33;100481.97;4977316;28;20036;-83
2021/07/06 03:12:38;;;;;;;7.10;4.18;;;;;;;16.08;91.60;100493.56;4977142;28;20473;-82
2021/07/06 03:15:06;;;;;;;7.10;3.65;;;;;;;16.09;91.64;100484.41;4993939;28;20129;-83
2021/07/06 03:17:31;;;;;;;7.35;3.55;;;;;;;16.09;91.62;100479.00;4977247;28;20390;-82
2021/07/06 03:19:56;;;;;;;5.35;3.33;;;;;;;16.08;92.16;100476.41;4981926;28;20479;-82
2021/07/06 03:22:21;;;;;;;7.53;3.65;;;;;;;15.98;92.53;100471.78;4997042;28;20036;-82
2021/07/06 03:24:47;;;;;;;6.25;3.58;;;;;;;15.99;91.98;100475.38;4991309;28;20049;-82
2021/07/06 03:27:12;;;;;;;5.38;3.67;;;;;;;16.03;92.56;100487.66;4980485;28;20022;-83
2021/07/06 03:29:37;;;;;;;9.82;4.05;;;;;;;16.04;91.93;100474.97;4980443;28;20488;-82
2021/07/06 03:32:04;;;;;;;8.10;3.78;;;;;;;16.08;92.35;100463.75;4997996;28;20465;-82
2021/07/06 03:34:29;;;;;;;6.60;3.90;;;;;;;16.04;91.70;100450.59;4980315;28;20481;-82
2021/07/06 03:36:54;;;;;;;6.55;3.78;;;;;;;16.15;91.54;100454.09;4981355;28;20365;-83
2021/07/06 03:39:20;;;;;;;9.32;4.57;;;;;;;16.01;91.98;100432.72;4980774;28;20030;-82
2021/07/06 03:41:45;;;;;;;8.02;3.58;;;;;;;16.03;91.95;100433.44;4980313;28;20045;-82
2021/07/06 03:44:10;;;;;;;6.85;3.80;;;;;;;16.15;91.43;100437.81;4979959;28;20028;-83
2021/07/06 03:46:36;;;;;;;8.85;4.03;;;;;;;16.15;91.51;100442.38;4997568;28;20124;-82
2021/07/06 03:49:02;;;;;;;8.70;3.95;;;;;;;16.08;91.76;100442.06;4994559;28;20025;-81
2021/07/06 03:51:28;;;;;;;6.55;3.78;;;;;;;16.17;91.44;100446.66;5003292;28;20034;-82
2021/07/06 03:53:53;;;;;;;6.80;3.63;;;;;;;16.08;91.59;100439.34;5001573;28;20025;-82
2021/07/06 03:56:18;;;;;;;8.57;3.75;;;;;;;16.13;91.53;100445.22;4999796;28;20092;-83
2021/07/06 03:58:44;;;;;;;7.13;4.05;;;;;;;16.12;91.54;100448.91;4999950;28;20440;-82
2021/07/06 04:01:09;;;;;;;7.13;4.07;;;;;;;16.18;90.74;100444.81;4983857;28;20373;-82
2021/07/06 04:03:34;;;;;;;6.70;4.00;;;;;;;16.22;91.47;100437.28;4985136;28;20424;-82
2021/07/06 04:06:00;;;;;;;6.82;4.25;;;;;;;16.24;91.63;100446.13;5019564;28;20416;-83
2021/07/06 04:08:25;;;;;;;9.27;4.05;;;;;;;16.31;90.50;100439.19;5019620;28;20469;-82
2021/07/06 04:10:50;;;;;;;9.40;3.42;;;;;;;16.34;90.41;100439.78;5019248;28;20048;-83
2021/07/06 04:13:15;;;;;;;6.85;3.63;;;;;;;16.34;90.43;100438.94;5019202;28;20439;-82
2021/07/06 04:15:41;;;;;;;6.28;3.40;;;;;;;16.52;90.03;100450.84;5019229;28;20025;-82
2021/07/06 04:18:07;;;;;;;5.50;3.55;;;;;;;16.58;90.12;100436.75;5003194;28;20021;-82
2021/07/06 04:20:33;;;;;;;7.25;3.90;;;;;;;16.59;89.73;100424.94;5018870;28;20045;-82
2021/07/06 04:22:58;;;;;;;7.93;4.60;;;;;;;16.61;89.75;100438.34;4995195;28;20476;-82
2021/07/06 04:25:24;;;;;;;9.98;3.53;;;;;;;16.88;88.69;100454.03;4999142;28;20030;-82
2021/07/06 04:27:51;;;;;;;5.43;3.63;;;;;;;16.93;88.95;100438.19;4993893;28;20026;-82
2021/07/06 04:30:17;;;;;;;10.18;4.28;;;;;;;16.98;87.77;100437.78;4984057;28;20477;-82
2021/07/06 04:32:45;;;;;;;10.13;3.53;;;;;;;17.00;88.60;100436.66;4987039;28;20480;-82
2021/07/06 04:35:11;;;;;;;6.38;3.72;;;;;;;16.93;88.90;100421.91;5019218;28;20139;-83
2021/07/06 04:37:37;;;;;;;9.00;3.92;;;;;;;17.05;88.63;100422.66;4999303;28;20038;-82
2021/07/06 04:40:03;;;;;;;8.73;3.47;;;;;;;17.10;87.90;100411.38;4983203;28;20014;-82
2021/07/06 04:42:28;;;;;;;7.00;3.53;;;;;;;17.08;88.25;100386.25;4991602;28;20030;-79
2021/07/06 04:44:54;;;;;;;6.47;4.05;;;;;;;17.20;87.54;100396.84;5018799;28;20059;-82
2021/07/06 04:47:19;;;;;;;9.07;3.85;;;;;;;17.34;87.22;100408.31;5018857;28;20028;-81
2021/07/06 04:49:44;;;;;;;9.55;4.95;;;;;;;17.23;87.29;100412.00;5018313;28;20491;-82
2021/07/06 04:52:10;;;;;;;8.15;3.67;;;;;;;17.37;86.13;100402.56;5018712;28;20025;-81
2021/07/06 04:54:35;;;;;;;8.02;3.53;;;;;;;17.42;86.23;100398.41;5002227;28;20361;-82
2021/07/06 04:57:00;;;;;;;5.75;3.38;;;;;;;17.52;86.26;100403.88;5018381;28;20033;-82
2021/07/06 04:59:26;;;;;;;8.10;3.90;;;;;;;17.48;86.06;100393.44;4995660;28;20030;-82
2021/07/06 05:01:51;;;;;;;5.60;3.40;;;;;;;17.57;86.38;100404.31;4995469;28;20020;-83
2021/07/06 05:04:17;;;;;;;8.77;3.80;;;;;;;17.67;86.23;100420.59;5003292;28;20024;-82
2021/07/06 05:06:42;;;;;;;5.95;3.60;;;;;;;17.75;85.64;100414.44;5008740;28;20049;-82
2021/07/06 05:09:08;;;;;;;7.97;4.05;;;;;;;17.91;84.87;100409.28;5002300;28;20072;-82
2021/07/06 05:11:33;;;;;;;7.57;4.03;;;;;;;17.85;85.82;100397.16;4995837;28;20050;-82
2021/07/06 05:13:58;;;;;;;5.70;3.78;;;;;;;18.03;84.08;100394.56;5005072;28;20014;-82
2021/07/06 05:16:24;;;;;;;7.72;3.50;;;;;;;18.08;84.25;100402.28;4982633;28;20061;-82
2021/07/06 05:18:49;;;;;;;5.78;3.58;;;;;;;18.14;84.37;100407.09;4998794;28;20480;-82
2021/07/06 05:21:16;;;;;;;5.55;3.50;;;;;;;17.98;84.68;100415.88;5016807;28;20045;-82
2021/07/06 05:23:41;;;;;;;;;;;;;;;18.09;85.04;100433.88;5018422;28;20053;-82
2021/07/06 05:26:07;;;;;;;5.27;3.43;;;;;;;18.23;84.22;100440.72;4998455;28;19948;-82
2021/07/06 05:28:32;;;;;;;9.40;4.15;;;;;;;18.50;83.17;100439.94;4982264;28;20271;-83
2021/07/06 05:30:57;;;;;;;7.43;3.55;;;;;;;18.62;83.14;100446.91;4983480;28;20064;-83
2021/07/06 05:33:23;;;;;;;9.20;3.55;;;;;;;18.78;82.13;100438.16;4982006;28;20121;-82
2021/07/06 05:35:48;;;;;;;9.70;3.40;;;;;;;19.04;79.65;100419.22;5003746;28;20033;-82
2021/07/06 05:38:14;;;;;;;5.82;3.45;;;;;;;19.07;80.92;100435.25;5017600;28;20595;-80
2021/07/06 05:40:39;;;;;;;10.60;3.58;;;;;;;19.33;79.23;100435.41;5019854;28;20029;-81
2021/07/06 05:43:06;;;;;;;11.10;4.00;;;;;;;19.12;81.11;100445.69;5021622;28;20468;-82
2021/07/06 05:45:32;;;;;;;;;;;;;;;19.06;80.33;100440.88;5001603;28;20387;-82
2021/07/06 05:47:57;;;;;;;8.93;3.20;;;;;;;18.88;80.89;100447.09;5016882;28;20375;-84
2021/07/06 05:50:23;;;;;;;8.30;3.33;;;;;;;18.84;81.37;100434.78;4997353;28;20026;-88
2021/07/06 05:52:48;;;;;;;5.30;3.35;;;;;;;18.89;81.24;100434.34;4986635;28;20030;-81
2021/07/06 05:55:13;;;;;;;5.00;3.30;;;;;;;19.00;80.28;100439.59;5017178;28;20026;-80
2021/07/06 05:57:43;;;;;;;6.95;2.72;;;;;;;19.09;80.43;100440.56;5001059;28;20025;-81
2021/07/06 06:00:10;;;;;;;8.25;2.90;;;;;;;19.08;80.83;100428.81;5000988;28;20029;-81
2021/07/06 06:02:36;;;;;;;7.00;3.28;;;;;;;19.16;81.11;100430.75;5017262;28;20041;-81
2021/07/06 06:05:03;;;;;;;4.78;2.92;;;;;;;18.95;81.66;100414.69;5016756;28;20140;-80
2021/07/06 06:07:28;;;;;;;5.65;3.25;;;;;;;19.13;80.31;100401.97;5016921;28;20124;-81
2021/07/06 06:09:53;;;;;;;5.68;3.90;;;;;;;19.19;80.85;100402.38;5016651;28;20112;-81
2021/07/06 06:12:19;;;;;;;9.48;4.47;;;;;;;19.27;82.42;100388.84;5017120;28;20021;-80
2021/07/06 06:14:44;;;;;;;6.63;3.38;;;;;;;19.51;80.33;100390.94;4999924;28;20022;-84
2021/07/06 06:17:09;;;;;;;7.63;3.00;;;;;;;19.83;80.36;100386.81;5013680;28;20060;-81
2021/07/06 06:19:35;;;;;;;5.57;2.83;;;;;;;20.14;79.76;100393.53;5014244;28;20068;-84
2021/07/06 06:22:00;;;;;;;6.47;2.75;;;;;;;20.46;79.12;100397.47;5007829;28;20539;-88
2021/07/06 06:24:25;;;;;;;7.25;3.00;;;;;;;20.90;76.46;100411.00;5017392;28;20357;-87
2021/07/06 06:26:51;;;;;;;5.43;2.42;;;;;;;21.54;73.26;100400.44;5017404;28;20392;-87
2021/07/06 06:29:17;;;;;;;8.85;2.88;;;;;;;22.52;67.68;100385.84;5016945;28;21922;-83
2021/07/06 06:31:43;;;;;;;4.23;1.87;;;;;;;23.57;66.18;100384.63;5017017;28;20025;-83
2021/07/06 06:34:08;;;;;;;4.13;2.53;;;;;;;23.78;61.40;100387.53;5016660;28;20349;-83
2021/07/06 06:36:34;;;;;;;4.20;1.93;;;;;;;23.84;61.60;100400.53;5017129;28;20048;-84
2021/07/06 06:39:01;;;;;;;3.93;1.90;;;;;;;23.65;62.58;100382.66;5001031;28;20032;-82
2021/07/06 06:41:27;;;;;;;8.63;2.20;;;;;;;23.40;60.93;100381.16;5000521;28;20024;-82
2021/07/06 06:43:53;;;;;;;6.10;2.70;;;;;;;23.24;61.90;100374.72;5000453;28;20021;-81
2021/07/06 06:46:20;;;;;;;12.23;2.00;;;;;;;23.00;63.29;100377.59;5010174;28;20029;-83
2021/07/06 06:48:45;;;;;;;8.43;2.88;;;;;;;23.19;64.12;100376.31;4995133;28;20281;-82
2021/07/06 06:51:11;;;;;;;4.03;1.77;;;;;;;23.23;63.64;100372.16;4999974;28;20397;-82
2021/07/06 06:53:36;;;;;;;3.83;2.17;;;;;;;23.60;62.69;100376.88;5000307;28;20025;-84
2021/07/06 06:56:02;;;;;;;6.70;2.07;;;;;;;24.47;59.34;100378.34;5000211;28;20064;-84
2021/07/06 06:58:27;;;;;;;4.40;1.53;;;;;;;24.55;57.57;100384.59;5000403;28;20033;-84
2021/07/06 07:00:52;;;;;;;6.50;1.77;;;;;;;24.92;58.09;100379.13;5000060;28;20029;-85
2021/07/06 07:03:18;;;;;;;6.13;2.20;;;;;;;24.28;57.94;100379.72;4999074;28;20025;-82
2021/07/06 07:05:43;;;;;;;8.93;2.10;;;;;;;23.97;60.09;100388.91;5003588;28;20014;-84
2021/07/06 07:08:09;;;;;;;5.23;2.20;;;;;;;23.71;59.36;100387.41;5000297;28;20427;-82
2021/07/06 07:10:35;;;;;;;8.33;2.20;;;;;;;23.31;60.96;100400.38;5016299;28;20029;-82
2021/07/06 07:13:00;;;;;;;3.10;1.63;;;;;;;23.31;61.75;100394.03;5015905;28;20542;-84
2021/07/06 07:15:26;;;;;;;3.23;1.97;;;;;;;23.05;63.68;100392.50;5016560;28;20065;-83
2021/07/06 07:17:51;;;;;;;3.83;1.70;;;;;;;23.24;62.45;100404.88;5018857;28;20033;-83
2021/07/06 07:20:17;;;;;;;3.67;1.40;;;;;;;23.12;63.55;100392.63;5003204;28;20480;-82
2021/07/06 07:22:43;;;;;;;5.10;1.58;;;;;;;23.48;60.73;100398.38;5016313;28;20032;-82
2021/07/06 07:25:10;;;;;;;2.75;1.67;;;;;;;23.30;61.41;100395.94;5000867;28;20025;-81
2021/07/06 07:27:35;;;;;;;4.57;2.05;;;;;;;23.30;62.06;100395.06;5000599;28;20026;-84
2021/07/06 07:30:01;;;;;;;4.40;1.67;;;;;;;24.77;58.59;100395.66;4984323;28;20038;-82
2021/07/06 07:32:26;;;;;;;4.05;1.55;;;;;;;28.17;46.81;100392.41;5020126;28;20032;-82
2021/07/06 07:34:53;;;;;;;3.97;1.67;;;;;;;31.10;40.49;100385.84;5003937;28;20022;-82
2021/07/06 07:37:20;;;;;;;2.40;1.05;;;;;;;32.37;36.73;100387.50;5002908;28;20030;-82
2021/07/06 07:39:45;;;;;;;6.43;2.95;;;;;;;34.15;33.00;100386.66;5016989;28;20044;-83
2021/07/06 07:42:10;;;;;;;7.53;2.77;;;;;;;35.06;31.49;100388.22;5016846;28;20034;-84
2021/07/06 07:44:36;;;;;;;5.77;2.00;;;;;;;35.03;31.44;100390.69;4991436;28;20026;-85
2021/07/06 07:47:01;;;;;;;2.73;1.40;;;;;;;35.77;28.06;100373.38;5003641;28;20026;-86
2021/07/06 07:49:26;;;;;;;2.47;1.37;;;;;;;36.82;27.74;100386.72;5003094;28;20080;-85
2021/07/06 07:51:52;;;;;;;3.57;0.97;;;;;;;36.70;27.49;100378.56;4990278;28;20022;-84
2021/07/06 07:54:17;;;;;;;2.60;0.90;;;;;;;38.63;24.69;100376.31;5016324;28;20079;-86
2021/07/06 07:56:42;;;;;;;2.80;0.80;;;;;;;38.13;24.37;100371.63;5010108;28;20428;-85
2021/07/06 07:59:09;;;;;;;3.00;0.90;;;;;;;37.82;25.41;100366.84;4986095;28;20473;-85
2021/07/06 08:01:34;;;;;;;3.97;2.00;;;;;;;38.50;25.53;100368.50;4983854;28;20037;-85
2021/07/06 08:04:00;;;;;;;14.15;1.95;;;;;;;38.04;25.14;100346.97;5000178;28;20030;-83
2021/07/06 08:06:25;;;;;;;4.07;1.00;;;;;;;37.80;25.24;100343.84;4983799;28;20042;-86
2021/07/06 08:08:50;;;;;;;2.70;0.70;;;;;;;36.42;28.28;100349.84;4983908;28;20295;-85
2021/07/06 08:11:16;;;;;;;;;;;;;;;38.73;24.40;100345.38;5019932;28;20072;-84
2021/07/06 08:13:41;;;;;;;1.77;0.87;;;;;;;38.59;23.93;100340.69;5003083;28;19913;-84
2021/07/06 08:16:06;;;;;;;;;;;;;;;39.95;22.27;100342.97;5020160;28;20032;-85
2021/07/06 08:18:32;;;;;;;4.20;1.13;;;;;;;40.25;22.42;100334.53;4995676;28;19925;-84
2021/07/06 08:20:58;;;;;;;3.85;1.00;;;;;;;40.36;21.59;100338.91;4999604;28;20050;-83
2021/07/06 08:23:23;;;;;;;4.15;0.93;;;;;;;40.53;22.24;100327.19;4999907;28;20029;-84
2021/07/06 08:25:50;;;;;;;3.15;0.70;;;;;;;40.38;22.65;100331.88;5016052;28;20137;-83
2021/07/06 08:28:15;;;;;;;3.90;1.08;;;;;;;41.31;21.61;100317.41;5015570;28;20517;-82
2021/07/06 08:30:41;;;;;;;5.22;0.95;;;;;;;41.58;20.22;100338.47;5015156;28;20030;-80
2021/07/06 08:33:07;;;;;;;3.38;1.20;;;;;;;41.52;20.90;100320.78;5018899;28;20414;-85
2021/07/06 08:35:32;;;;;;;3.20;1.00;;;;;;;41.53;21.27;100339.34;5002999;28;20022;-85
2021/07/06 08:37:57;;;;;;;2.90;0.90;;;;;;;41.34;20.50;100327.28;5002650;28;20460;-85
2021/07/06 08:40:23;;;;;;;4.67;0.77;;;;;;;42.31;19.93;100339.72;5002677;28;20795;-84
2021/07/06 08:42:48;;;;;;;6.03;1.02;;;;;;;41.48;20.53;100339.44;5001165;28;20755;-84
2021/07/06 08:45:15;;;;;;;2.10;0.93;;;;;;;39.58;22.38;100331.47;4999625;28;20018;-86
2021/07/06 08:47:44;;;;;;;3.78;1.00;;;;;;;35.92;26.59;100344.72;5017326;28;20025;-86
2021/07/06 08:50:09;;;;;;;4.78;1.17;;;;;;;33.26;32.00;100356.66;5001112;28;20477;-84
2021/07/06 08:52:37;;;;;;;1.63;1.00;;;;;;;31.73;35.59;100358.69;5002693;28;20029;-84
2021/07/06 08:55:08;;;;;;;4.30;0.93;;;;;;;31.16;36.26;100375.72;5000136;28;20033;-85
2021/07/06 08:57:37;;;;;;;2.22;0.90;;;;;;;29.26;41.44;100379.81;4985938;28;20037;-85
2021/07/06 09:00:03;;;;;;;8.68;1.20;;;;;;;28.94;41.80;100380.56;4982965;28;20022;-84
2021/07/06 09:02:28;;;;;;;9.77;1.85;;;;;;;28.33;43.45;100384.53;4982627;28;20030;-87
2021/07/06 09:04:55;;;;;;;6.63;1.67;;;;;;;27.70;47.73;100389.63;5017636;28;20777;-82
2021/07/06 09:07:21;;;;;;;86.95;10.35;;;;;;;26.95;52.40;100391.53;4997150;28;20022;-86
2021/07/06 09:09:47;;;;;;;24.30;3.70;;;;;;;26.16;56.11;100404.59;5007590;28;20086;-85
2021/07/06 09:12:14;;;;;;;10.88;2.65;;;;;;;26.07;57.67;100399.44;5003151;28;20018;-85
2021/07/06 09:14:41;;;;;;;;;;;;;;;26.10;59.22;100393.50;5018703;28;20044;-85
2021/07/06 09:17:06;;;;;;;5.80;2.13;;;;;;;26.33;53.98;100396.03;5004248;28;19924;-85
2021/07/06 09:19:32;;;;;;;11.10;3.33;;;;;;;26.15;56.57;100400.09;5038338;28;20033;-85
2021/07/06 09:22:14;;;;;;;11.30;4.80;;;;;;;25.48;59.46;100389.53;5021493;28;20041;-83
2021/07/06 09:24:42;;;;;;;7.70;2.47;;;;;;;25.48;59.50;100403.28;4999598;28;20081;-86
2021/07/06 09:27:26;;;;;;;6.53;2.60;;;;;;;25.77;58.59;100400.41;4987771;28;20103;-84
2021/07/06 09:30:13;;;;;;;2.80;1.48;;;;;;;26.13;57.59;100405.00;4993891;28;20037;-84
2021/07/06 09:32:41;;;;;;;5.93;1.70;;;;;;;26.85;54.31;100390.00;5009932;28;20053;-83
2021/07/06 09:35:08;;;;;;;3.72;1.70;;;;;;;27.32;53.16;100387.44;5020832;28;20017;-82
2021/07/06 09:37:45;;;;;;;;;;;;;;;27.76;52.28;100380.50;5038080;28;20049;-82
2021/07/06 09:40:43;;;;;;;6.07;1.80;;;;;;;28.55;48.86;100367.75;5019965;28;20380;-83
2021/07/06 09:43:35;;;;;;;6.43;2.10;;;;;;;28.42;49.38;100367.75;5014754;28;20082;-84
2021/07/06 09:46:03;;;;;;;5.53;1.70;;;;;;;28.50;48.98;100365.63;4987719;28;20037;-83
2021/07/06 09:48:29;;;;;;;6.07;1.42;;;;;;;28.78;47.60;100363.59;4997684;28;20044;-81
2021/07/06 09:51:12;;;;;;;4.90;1.33;;;;;;;29.30;45.96;100354.25;5014835;28;20034;-84
2021/07/06 09:53:39;;;;;;;9.40;1.83;;;;;;;30.78;43.19;100335.25;5012252;28;20038;-83
2021/07/06 09:56:12;;;;;;;8.80;2.03;;;;;;;30.72;42.26;100344.47;5015819;28;20445;-83
2021/07/06 09:59:00;;;;;;;5.65;1.20;;;;;;;30.71;42.24;100342.81;5015254;28;20025;-81
2021/07/06 10:01:26;;;;;;;3.47;1.25;;;;;;;29.32;43.19;100327.19;5016564;28;20052;-82
2021/07/06 10:03:53;;;;;;;7.45;1.15;;;;;;;28.60;46.05;100342.22;5015517;28;20025;-80
2021/07/06 10:06:23;;;;;;;;;;;;;;;28.08;45.91;100337.44;5032153;28;20082;-85
2021/07/06 10:08:49;;;;;;;4.25;1.45;;;;;;;28.54;44.25;100341.16;5011363;28;19933;-85
2021/07/06 10:11:15;;;;;;;5.10;1.27;;;;;;;28.77;44.18;100345.34;5034298;28;20029;-84
2021/07/06 10:13:40;;;;;;;4.57;1.30;;;;;;;29.12;45.33;100349.44;5014930;28;20026;-81
2021/07/06 10:16:06;;;;;;;5.80;1.40;;;;;;;28.97;44.03;100353.56;5031782;28;20028;-81
2021/07/06 10:18:32;;;;;;;6.93;1.33;;;;;;;28.53;44.00;100351.38;5018158;28;20510;-84
2021/07/06 10:21:02;;;;;;;7.13;1.67;;;;;;;28.13;46.14;100353.34;5016348;28;20511;-80
2021/07/06 10:23:27;;;;;;;4.57;1.30;;;;;;;28.01;46.47;100344.88;5017848;28;20029;-81
2021/07/06 10:25:54;;;;;;;4.70;1.77;;;;;;;26.80;48.38;100353.91;5017910;28;20460;-84
2021/07/06 10:28:21;;;;;;;5.15;1.45;;;;;;;26.51;48.74;100362.44;5014378;28;20017;-82
2021/07/06 10:30:47;;;;;;;3.17;1.35;;;;;;;25.92;49.54;100347.22;5011199;28;20159;-80
2021/07/06 10:33:15;;;;;;;5.68;1.30;;;;;;;25.60;53.31;100352.22;5034103;28;20036;-80
2021/07/06 10:35:41;;;;;;;6.88;1.50;;;;;;;25.36;52.33;100365.28;5032489;28;20020;-83
2021/07/06 10:38:28;;;;;;;7.60;1.67;;;;;;;25.03;49.91;100367.66;5009881;28;20477;-82
2021/07/06 10:41:07;;;;;;;5.20;2.10;;;;;;;24.81;52.37;100364.00;5008530;28;20379;-81
2021/07/06 10:43:50;;;;;;;3.88;1.80;;;;;;;24.89;51.22;100372.13;4996886;28;20025;-82
2021/07/06 10:46:21;;;;;;;4.47;1.50;;;;;;;24.84;52.66;100373.75;5015109;28;20025;-82
2021/07/06 10:48:59;;;;;;;7.63;2.08;;;;;;;24.50;52.14;100380.69;5012895;28;20029;-81
2021/07/06 10:51:34;;;;;;;4.18;1.80;;;;;;;24.51;52.56;100377.75;5030058;28;20144;-79
2021/07/06 10:54:14;;;;;;;3.03;1.60;;;;;;;24.47;53.15;100381.06;5032079;28;20032;-82
2021/07/06 10:56:43;;;;;;;5.07;1.70;;;;;;;24.29;52.97;100373.16;4999071;28;20451;-82
2021/07/06 10:59:34;;;;;;;5.68;1.50;;;;;;;24.24;55.60;100386.63;4992437;28;20087;-80
2021/07/06 11:02:07;;;;;;;7.00;1.30;;;;;;;24.37;54.93;100373.09;4980470;28;20026;-82
2021/07/06 11:04:50;;;;;;;6.65;1.67;;;;;;;24.35;53.57;100373.28;4996611;28;20029;-80
2021/07/06 11:07:16;;;;;;;3.72;1.58;;;;;;;24.43;55.84;100372.31;5016034;28;20043;-80
2021/07/06 11:09:41;;;;;;;3.47;1.43;;;;;;;24.31;56.11;100374.69;4988277;28;20107;-80
2021/07/06 11:12:32;;;;;;;6.40;1.73;;;;;;;24.13;54.07;100380.53;5038702;28;20273;-82
2021/07/06 11:14:59;;;;;;;6.00;1.67;;;;;;;24.11;55.09;100382.63;4995115;28;20461;-80
2021/07/06 11:17:37;;;;;;;5.60;1.80;;;;;;;24.25;56.75;100380.06;5006030;28;20090;-82
2021/07/06 11:20:32;;;;;;;4.15;1.77;;;;;;;24.20;58.06;100374.31;5009762;28;20148;-81
2021/07/06 11:22:58;;;;;;;7.28;1.70;;;;;;;24.33;57.41;100371.75;5000263;28;20492;-81
2021/07/06 11:25:23;;;;;;;8.20;2.57;;;;;;;24.73;55.79;100377.84;4988343;28;20124;-82
2021/07/06 11:28:05;;;;;;;4.57;1.57;;;;;;;24.70;53.33;100364.50;4996761;28;20037;-86